createdAt,value
2018-03-07T00:02:26.317Z,6.50
2018-03-07T00:04:53.758Z,6.50
2018-03-07T00:07:21.577Z,6.50
2018-03-07T00:09:49.013Z,6.50
2018-03-07T00:12:16.458Z,6.50
2018-03-07T00:14:43.885Z,6.40
2018-03-07T00:17:11.730Z,6.40
2018-03-07T00:19:39.578Z,6.40
2018-03-07T00:22:08.155Z,6.40
2018-03-07T00:24:35.593Z,6.40
2018-03-07T00:27:03.430Z,6.40
2018-03-07T00:29:30.864Z,6.40
2018-03-07T00:31:58.312Z,6.50
2018-03-07T00:34:26.152Z,6.50
2018-03-07T00:36:53.586Z,6.40
2018-03-07T00:39:21.018Z,6.40
2018-03-07T00:41:48.865Z,6.40
2018-03-07T00:44:16.323Z,6.40
2018-03-07T00:46:43.759Z,6.40
2018-03-07T00:49:11.966Z,6.40
2018-03-07T00:51:40.159Z,6.40
2018-03-07T00:54:07.595Z,6.30
2018-03-07T00:56:35.033Z,6.20
2018-03-07T00:59:03.233Z,6.30
2018-03-07T01:01:31.435Z,6.30
2018-03-07T01:03:59.658Z,6.10
2018-03-07T01:06:27.486Z,6.00
2018-03-07T01:08:55.688Z,5.90
2018-03-07T01:11:23.526Z,5.90
2018-03-07T01:13:51.717Z,5.70
2018-03-07T01:16:19.566Z,5.80
2018-03-07T01:18:47.402Z,5.70
2018-03-07T01:21:14.845Z,5.60
2018-03-07T01:23:43.066Z,5.50
2018-03-07T01:26:10.519Z,5.40
2018-03-07T01:28:37.956Z,5.50
2018-03-07T01:31:05.382Z,5.40
2018-03-07T01:33:32.821Z,5.40
2018-03-07T01:36:00.241Z,5.30
2018-03-07T01:38:27.689Z,5.30
2018-03-07T01:40:55.130Z,5.20
2018-03-07T01:43:22.959Z,5.30
2018-03-07T01:45:50.401Z,5.20
2018-03-07T01:48:18.612Z,5.20
2018-03-07T01:50:46.811Z,5.10
2018-03-07T01:53:14.630Z,5.10
2018-03-07T01:55:42.834Z,5.10
2018-03-07T01:58:10.265Z,4.90
2018-03-07T02:00:37.693Z,4.90
2018-03-07T02:03:05.142Z,4.80
2018-03-07T02:05:32.591Z,4.70
2018-03-07T02:08:00.013Z,4.80
2018-03-07T02:10:27.889Z,4.70
2018-03-07T02:12:55.322Z,4.60
2018-03-07T02:15:22.772Z,4.70
2018-03-07T02:17:51.837Z,4.60
2018-03-07T02:20:20.121Z,4.80
2018-03-07T02:22:48.388Z,4.60
2018-03-07T02:25:16.356Z,4.80
2018-03-07T02:27:44.324Z,4.70
2018-03-07T02:30:11.830Z,4.60
2018-03-07T02:32:39.341Z,4.60
2018-03-07T02:35:07.604Z,4.60
2018-03-07T02:37:35.492Z,4.70
2018-03-07T02:40:03.016Z,4.60
2018-03-07T02:42:30.632Z,4.50
2018-03-07T02:44:58.892Z,4.40
2018-03-07T02:47:26.392Z,4.20
2018-03-07T02:49:53.952Z,4.20
2018-03-07T02:52:21.537Z,3.90
2018-03-07T02:54:49.521Z,4.00
2018-03-07T02:57:17.501Z,4.00
2018-03-07T02:59:45.076Z,3.80
2018-03-07T03:02:12.608Z,3.60
2018-03-07T03:04:40.102Z,3.60
2018-03-07T03:07:08.361Z,3.50
2018-03-07T03:09:35.861Z,3.40
2018-03-07T03:12:03.361Z,3.40
2018-03-07T03:14:30.924Z,3.40
2018-03-07T03:16:59.211Z,3.40
2018-03-07T03:19:27.532Z,3.30
2018-03-07T03:21:55.112Z,3.30
2018-03-07T03:24:22.616Z,3.30
2018-03-07T03:26:50.176Z,3.20
2018-03-07T03:29:17.691Z,3.20
2018-03-07T03:31:45.201Z,3.30
2018-03-07T03:34:12.764Z,3.30
2018-03-07T03:36:41.034Z,3.40
2018-03-07T03:39:09.368Z,3.30
2018-03-07T03:41:37.283Z,3.20
2018-03-07T03:44:04.841Z,3.20
2018-03-07T03:46:32.420Z,3.30
2018-03-07T03:49:00.779Z,3.20
2018-03-07T03:51:28.285Z,3.20
2018-03-07T03:53:55.782Z,3.20
2018-03-07T03:56:23.356Z,3.20
2018-03-07T03:58:50.880Z,3.10
2018-03-07T04:01:18.448Z,3.10
2018-03-07T04:03:45.965Z,3.10
2018-03-07T04:06:13.469Z,3.10
2018-03-07T04:08:40.981Z,2.90
2018-03-07T04:11:08.886Z,2.80
2018-03-07T04:13:36.386Z,2.60
2018-03-07T04:16:03.893Z,2.60
2018-03-07T04:18:31.414Z,2.60
2018-03-07T04:20:59.748Z,2.50
2018-03-07T04:23:28.083Z,2.60
2018-03-07T04:25:56.364Z,2.50
2018-03-07T04:28:24.328Z,2.50
2018-03-07T04:30:51.826Z,2.50
2018-03-07T04:33:20.180Z,2.40
2018-03-07T04:35:47.696Z,2.30
2018-03-07T04:38:16.028Z,2.30
2018-03-07T04:40:43.650Z,2.20
2018-03-07T04:43:11.202Z,2.20
2018-03-07T04:45:39.560Z,2.20
2018-03-07T04:48:07.071Z,2.30
2018-03-07T04:50:35.346Z,2.10
2018-03-07T04:53:02.890Z,2.10
2018-03-07T04:55:30.394Z,2.10
2018-03-07T04:57:58.732Z,2.00
2018-03-07T05:00:26.255Z,2.10
2018-03-07T05:02:54.216Z,2.10
2018-03-07T05:05:21.819Z,2.20
2018-03-07T05:07:49.335Z,2.20
2018-03-07T05:10:16.836Z,2.10
2018-03-07T05:12:44.404Z,2.30
2018-03-07T05:15:12.325Z,2.30
2018-03-07T05:17:39.820Z,2.40
2018-03-07T05:20:07.300Z,2.40
2018-03-07T05:22:34.880Z,2.40
2018-03-07T05:25:02.771Z,2.40
2018-03-07T05:27:30.269Z,2.30
2018-03-07T05:29:58.549Z,2.30
2018-03-07T05:32:26.880Z,2.20
2018-03-07T05:34:55.153Z,2.20
2018-03-07T05:37:24.232Z,2.20
2018-03-07T05:39:51.757Z,2.10
2018-03-07T05:42:19.251Z,2.10
2018-03-07T05:44:47.608Z,2.00
2018-03-07T05:47:15.947Z,1.90
2018-03-07T05:49:44.212Z,1.90
2018-03-07T05:52:12.175Z,1.90
2018-03-07T05:54:39.701Z,1.90
2018-03-07T05:57:07.191Z,1.90
2018-03-07T05:59:34.777Z,1.90
2018-03-07T06:02:02.268Z,1.90
2018-03-07T06:04:30.552Z,1.90
2018-03-07T06:06:58.551Z,2.00
2018-03-07T06:09:26.895Z,2.10
2018-03-07T06:11:55.979Z,2.20
2018-03-07T06:14:23.494Z,2.30
2018-03-07T06:16:51.016Z,2.30
2018-03-07T06:19:19.223Z,2.30
2018-03-07T06:21:47.195Z,2.40
2018-03-07T06:24:15.459Z,2.40
2018-03-07T06:26:42.961Z,2.50
2018-03-07T06:29:10.609Z,2.50
2018-03-07T06:31:38.104Z,2.50
2018-03-07T06:34:05.655Z,2.60
2018-03-07T06:36:33.977Z,2.60
2018-03-07T06:39:01.489Z,2.60
2018-03-07T06:43:57.917Z,2.70
2018-03-07T06:46:25.459Z,2.80
2018-03-07T06:48:52.952Z,2.90
2018-03-07T06:53:49.418Z,4.60
2018-03-07T06:56:17.010Z,5.20
2018-03-07T06:58:44.973Z,4.90
2018-03-07T07:01:12.821Z,4.70
2018-03-07T07:03:40.379Z,4.30
2018-03-07T07:06:07.960Z,4.30
2018-03-07T07:08:35.489Z,4.20
2018-03-07T07:11:03.106Z,4.00
2018-03-07T07:13:30.614Z,4.10
2018-03-07T07:15:58.095Z,4.20
2018-03-07T07:18:25.668Z,4.10
2018-03-07T07:20:53.185Z,4.20
2018-03-07T07:23:22.194Z,4.20
2018-03-07T07:25:49.772Z,4.60
2018-03-07T07:28:18.135Z,4.60
2018-03-07T07:30:45.651Z,4.60
2018-03-07T07:33:13.570Z,4.70
2018-03-07T07:35:41.520Z,4.60
2018-03-07T07:38:09.428Z,4.50
2018-03-07T07:40:36.920Z,4.60
2018-03-07T07:43:05.276Z,4.70
2018-03-07T07:45:32.799Z,4.70
2018-03-07T07:48:00.366Z,4.70
2018-03-07T07:50:27.949Z,4.80
2018-03-07T07:52:55.468Z,4.80
2018-03-07T07:55:23.798Z,4.80
2018-03-07T07:57:51.288Z,4.90
2018-03-07T08:00:18.860Z,4.90
2018-03-07T08:02:46.363Z,4.90
2018-03-07T08:05:14.694Z,5.00
2018-03-07T08:07:42.192Z,5.00
2018-03-07T08:10:09.679Z,5.10
2018-03-07T08:12:37.186Z,5.10
2018-03-07T08:15:04.672Z,5.20
2018-03-07T08:17:32.570Z,5.20
2018-03-07T08:20:00.134Z,5.20
2018-03-07T08:22:27.636Z,5.10
2018-03-07T08:24:55.597Z,5.20
2018-03-07T08:27:23.932Z,5.20
2018-03-07T08:29:51.458Z,5.20
2018-03-07T08:32:18.959Z,5.30
2018-03-07T08:34:47.205Z,5.30
2018-03-07T08:37:16.161Z,5.30
2018-03-07T08:39:43.808Z,5.30
2018-03-07T08:42:11.371Z,5.30
2018-03-07T08:44:38.969Z,5.30
2018-03-07T08:47:07.257Z,5.30
2018-03-07T08:49:35.164Z,5.20
2018-03-07T08:52:02.657Z,5.10
2018-03-07T08:54:30.561Z,5.20
2018-03-07T08:56:58.464Z,5.20
2018-03-07T08:59:25.989Z,5.20
2018-03-07T09:01:53.651Z,5.20
2018-03-07T09:04:21.910Z,5.20
2018-03-07T09:06:49.398Z,5.30
2018-03-07T09:09:16.975Z,5.70
2018-03-07T09:11:44.547Z,5.50
2018-03-07T09:14:12.067Z,5.40
2018-03-07T09:16:39.644Z,5.40
2018-03-07T09:19:07.216Z,5.40
2018-03-07T09:21:34.736Z,5.40
2018-03-07T09:24:02.268Z,5.40
2018-03-07T09:26:29.828Z,5.50
2018-03-07T09:28:57.367Z,5.60
2018-03-07T09:31:24.845Z,5.70
2018-03-07T09:33:52.337Z,6.10
2018-03-07T09:36:21.614Z,6.50
2018-03-07T09:38:49.179Z,7.20
2018-03-07T09:41:18.205Z,7.20
2018-03-07T09:43:46.554Z,7.20
2018-03-07T09:46:14.165Z,7.30
2018-03-07T09:48:42.065Z,7.50
2018-03-07T09:51:09.602Z,7.50
2018-03-07T09:53:37.163Z,7.70
2018-03-07T09:56:05.149Z,8.20
2018-03-07T09:58:33.741Z,8.40
2018-03-07T10:01:01.320Z,9.00
2018-03-07T10:03:29.588Z,9.30
2018-03-07T10:05:57.095Z,9.30
2018-03-07T10:08:25.385Z,9.50
2018-03-07T10:10:52.981Z,9.40
2018-03-07T10:13:20.554Z,9.60
2018-03-07T10:15:48.133Z,10.10
2018-03-07T10:18:15.706Z,10.30
2018-03-07T10:20:43.603Z,10.10
2018-03-07T10:23:11.168Z,10.00
2018-03-07T10:25:39.054Z,9.80
2018-03-07T10:28:06.551Z,9.50
2018-03-07T10:30:34.880Z,9.30
2018-03-07T10:33:03.623Z,9.20
2018-03-07T10:35:31.918Z,9.10
2018-03-07T10:37:59.820Z,9.30
2018-03-07T10:40:27.708Z,9.40
2018-03-07T10:42:55.662Z,9.60
2018-03-07T10:45:23.679Z,9.80
2018-03-07T10:47:51.664Z,9.90
2018-03-07T10:50:19.559Z,10.10
2018-03-07T10:52:47.884Z,10.30
2018-03-07T10:55:16.155Z,10.70
2018-03-07T10:57:44.118Z,10.70
2018-03-07T11:00:12.031Z,10.30
2018-03-07T11:02:40.016Z,10.20
2018-03-07T11:05:07.916Z,9.90
2018-03-07T11:07:35.871Z,9.80
2018-03-07T11:10:03.824Z,9.70
2018-03-07T11:12:32.161Z,9.80
2018-03-07T11:15:00.407Z,9.60
2018-03-07T11:17:28.380Z,9.70
2018-03-07T11:19:55.939Z,9.80
2018-03-07T11:22:24.206Z,10.20
2018-03-07T11:24:52.188Z,10.10
2018-03-07T11:27:20.155Z,10.60
2018-03-07T11:29:48.420Z,10.30
2018-03-07T11:32:15.922Z,9.90
2018-03-07T11:34:43.412Z,9.50
2018-03-07T11:37:11.665Z,9.30
2018-03-07T11:39:39.225Z,9.30
2018-03-07T11:42:07.122Z,9.30
2018-03-07T11:44:35.023Z,8.80
2018-03-07T11:47:03.275Z,9.60
2018-03-07T11:49:31.172Z,9.80
2018-03-07T11:51:59.412Z,9.60
2018-03-07T11:54:27.371Z,9.40
2018-03-07T11:56:55.261Z,9.20
2018-03-07T11:59:23.508Z,9.00
2018-03-07T12:01:51.396Z,8.90
2018-03-07T12:04:20.146Z,8.80
2018-03-07T12:06:47.765Z,8.80
2018-03-07T12:09:16.490Z,8.80
2018-03-07T12:11:43.979Z,8.70
2018-03-07T12:14:11.889Z,8.80
2018-03-07T12:16:39.740Z,8.90
2018-03-07T12:19:07.627Z,8.90
2018-03-07T12:21:35.975Z,9.00
2018-03-07T12:24:03.855Z,9.10
2018-03-07T12:26:32.194Z,9.20
2018-03-07T12:29:00.461Z,9.20
2018-03-07T12:31:29.524Z,9.20
2018-03-07T12:33:57.531Z,9.10
2018-03-07T12:36:25.860Z,9.10
2018-03-07T12:38:53.450Z,9.00
2018-03-07T12:41:21.797Z,8.90
2018-03-07T12:43:49.819Z,8.90
2018-03-07T12:46:17.723Z,8.70
2018-03-07T12:48:45.680Z,8.70
2018-03-07T12:51:13.946Z,8.70
2018-03-07T12:53:41.829Z,8.80
2018-03-07T12:56:09.812Z,8.80
2018-03-07T12:58:37.783Z,8.80
2018-03-07T13:01:06.190Z,8.80
2018-03-07T13:03:34.073Z,8.90
2018-03-07T13:06:02.054Z,9.00
2018-03-07T13:08:30.331Z,9.10
2018-03-07T13:10:58.605Z,8.90
2018-03-07T13:13:26.504Z,8.90
2018-03-07T13:15:54.476Z,8.80
2018-03-07T13:18:22.443Z,8.70
2018-03-07T13:20:50.709Z,8.80
2018-03-07T13:23:18.588Z,8.70
2018-03-07T13:25:46.487Z,8.70
2018-03-07T13:28:14.841Z,8.80
2018-03-07T13:30:42.813Z,8.90
2018-03-07T13:33:10.696Z,8.90
2018-03-07T13:35:38.976Z,8.80
2018-03-07T13:38:07.244Z,8.70
2018-03-07T13:40:34.753Z,8.60
2018-03-07T13:43:03.064Z,8.60
2018-03-07T13:45:31.040Z,8.60
2018-03-07T13:47:59.311Z,8.80
2018-03-07T13:50:27.203Z,9.00
2018-03-07T13:52:55.094Z,9.00
2018-03-07T13:55:23.076Z,9.30
2018-03-07T13:57:51.040Z,9.30
2018-03-07T14:00:19.373Z,9.30
2018-03-07T14:02:47.358Z,9.30
2018-03-07T14:05:15.999Z,9.10
2018-03-07T14:07:43.984Z,8.90
2018-03-07T14:10:11.480Z,9.00
2018-03-07T14:12:39.023Z,9.00
2018-03-07T14:15:06.566Z,8.90
2018-03-07T14:17:35.232Z,9.00
2018-03-07T14:20:03.497Z,9.20
2018-03-07T14:22:30.986Z,9.20
2018-03-07T14:24:59.251Z,9.30
2018-03-07T14:27:27.512Z,9.30
2018-03-07T14:29:55.846Z,9.30
2018-03-07T14:32:23.725Z,9.10
2018-03-07T14:34:51.691Z,9.10
2018-03-07T14:37:19.668Z,9.00
2018-03-07T14:39:47.555Z,8.90
2018-03-07T14:42:15.106Z,8.90
2018-03-07T14:44:42.697Z,8.90
2018-03-07T14:47:10.303Z,8.80
2018-03-07T14:49:38.557Z,8.90
2018-03-07T14:52:06.545Z,9.10
2018-03-07T14:54:34.445Z,9.10
2018-03-07T14:57:01.923Z,9.10
2018-03-07T14:59:29.430Z,9.10
2018-03-07T15:01:56.918Z,9.10
2018-03-07T15:04:25.225Z,9.00
2018-03-07T15:06:53.463Z,8.90
2018-03-07T15:09:21.793Z,8.90
2018-03-07T15:11:49.288Z,8.90
2018-03-07T15:14:16.788Z,8.90
2018-03-07T15:16:44.357Z,9.00
2018-03-07T15:19:12.628Z,9.00
2018-03-07T15:21:40.125Z,9.10
2018-03-07T15:24:07.630Z,9.30
2018-03-07T15:26:35.553Z,9.40
2018-03-07T15:29:03.137Z,9.40
2018-03-07T15:31:31.476Z,9.20
2018-03-07T15:33:59.035Z,9.10
2018-03-07T15:36:26.576Z,9.00
2018-03-07T15:38:54.236Z,8.90
2018-03-07T15:41:21.751Z,8.90
2018-03-07T15:43:49.319Z,8.90
2018-03-07T15:46:16.816Z,9.00
2018-03-07T15:48:44.369Z,9.00
2018-03-07T15:51:12.643Z,9.00
2018-03-07T15:53:40.201Z,9.00
2018-03-07T15:56:07.718Z,9.00
2018-03-07T15:58:35.681Z,8.90
2018-03-07T16:01:03.595Z,8.80
2018-03-07T16:03:31.118Z,8.70
2018-03-07T16:05:58.735Z,8.70
2018-03-07T16:08:26.306Z,8.70
2018-03-07T16:10:54.214Z,8.60
2018-03-07T16:13:21.734Z,8.60
2018-03-07T16:15:49.282Z,8.50
2018-03-07T16:18:16.896Z,8.50
2018-03-07T16:20:44.497Z,8.40
2018-03-07T16:23:12.782Z,8.40
2018-03-07T16:25:40.272Z,8.40
2018-03-07T16:28:08.546Z,8.40
2018-03-07T16:30:36.806Z,8.40
2018-03-07T16:33:04.368Z,8.40
2018-03-07T16:35:31.865Z,8.30
2018-03-07T16:37:59.375Z,8.30
2018-03-07T16:40:27.712Z,8.30
2018-03-07T16:42:55.296Z,8.20
2018-03-07T16:45:23.199Z,8.10
2018-03-07T16:47:51.168Z,8.10
2018-03-07T16:50:18.763Z,8.10
2018-03-07T16:52:46.318Z,8.10
2018-03-07T16:55:14.244Z,8.10
2018-03-07T16:57:41.883Z,8.00
2018-03-07T17:00:09.400Z,8.00
2018-03-07T17:02:38.410Z,7.90
2018-03-07T17:05:05.971Z,7.90
2018-03-07T17:07:33.572Z,7.80
2018-03-07T17:10:01.867Z,7.70
2018-03-07T17:12:29.747Z,7.70
2018-03-07T17:14:57.317Z,7.70
2018-03-07T17:17:25.230Z,7.60
2018-03-07T17:19:53.502Z,7.60
2018-03-07T17:22:21.876Z,7.50
2018-03-07T17:24:49.385Z,7.40
2018-03-07T17:27:16.970Z,7.40
2018-03-07T17:29:44.472Z,7.40
2018-03-07T17:32:12.344Z,7.30
2018-03-07T17:34:39.934Z,7.30
2018-03-07T17:37:07.451Z,7.20
2018-03-07T17:39:34.950Z,7.20
2018-03-07T17:42:02.858Z,7.20
2018-03-07T17:44:30.419Z,7.10
2018-03-07T17:46:58.152Z,7.10
2018-03-07T17:49:26.860Z,7.10
2018-03-07T17:51:55.134Z,7.10
2018-03-07T17:54:22.702Z,7.10
2018-03-07T17:56:50.304Z,7.00
2018-03-07T17:59:17.945Z,7.00
2018-03-07T18:01:45.436Z,7.00
2018-03-07T18:04:13.396Z,6.90
2018-03-07T18:06:41.357Z,6.90
2018-03-07T18:09:09.271Z,6.90
2018-03-07T18:11:37.566Z,6.90
2018-03-07T18:16:39.508Z,6.80
2018-03-07T18:19:07.091Z,6.80
2018-03-07T18:21:34.594Z,6.70
2018-03-07T18:24:02.862Z,6.70
2018-03-07T18:26:30.372Z,6.70
2018-03-07T18:28:57.942Z,6.70
2018-03-07T18:31:26.213Z,6.60
2018-03-07T18:33:54.580Z,6.60
2018-03-07T18:36:22.099Z,6.60
2018-03-07T18:38:49.989Z,6.50
2018-03-07T18:41:17.982Z,6.40
2018-03-07T18:43:46.172Z,6.40
2018-03-07T18:46:13.698Z,6.40
2018-03-07T18:48:42.080Z,6.30
2018-03-07T18:51:09.598Z,6.30
2018-03-07T18:53:38.015Z,6.30
2018-03-07T18:56:05.507Z,6.20
2018-03-07T18:58:33.843Z,6.20
2018-03-07T19:01:01.347Z,6.10
2018-03-07T19:03:28.832Z,6.20
2018-03-07T19:05:56.332Z,6.10
2018-03-07T19:11:14.265Z,6.00
2018-03-07T19:13:41.691Z,6.00
2018-03-07T19:16:09.901Z,6.00
2018-03-07T19:18:37.342Z,5.90
2018-03-07T19:21:04.768Z,5.90
2018-03-07T19:23:32.219Z,5.80
2018-03-07T19:25:59.664Z,5.80
2018-03-07T19:28:27.096Z,5.80
2018-03-07T19:30:54.521Z,5.70
2018-03-07T19:33:21.984Z,5.70
2018-03-07T19:35:49.415Z,5.70
2018-03-07T19:38:17.617Z,5.60
2018-03-07T19:40:45.451Z,5.60
2018-03-07T19:43:12.883Z,5.50
2018-03-07T19:45:41.077Z,5.50
2018-03-07T19:48:08.541Z,5.50
2018-03-07T19:50:35.978Z,5.40
2018-03-07T19:53:03.430Z,5.40
2018-03-07T19:55:31.630Z,5.40
2018-03-07T19:57:59.057Z,5.40
2018-03-07T20:00:26.504Z,5.30
2018-03-07T20:02:53.959Z,5.20
2018-03-07T20:05:21.797Z,5.30
2018-03-07T20:07:49.998Z,5.20
2018-03-07T20:10:17.847Z,5.20
2018-03-07T20:12:46.047Z,5.20
2018-03-07T20:15:14.236Z,5.20
2018-03-07T20:17:42.148Z,5.30
2018-03-07T20:20:09.586Z,5.30
2018-03-07T20:22:37.007Z,5.20
2018-03-07T20:25:04.460Z,5.30
2018-03-07T20:27:31.911Z,5.30
2018-03-07T20:29:59.752Z,5.30
2018-03-07T20:32:27.968Z,5.40
2018-03-07T20:34:55.406Z,5.30
2018-03-07T20:37:23.599Z,5.50
2018-03-07T20:39:51.462Z,5.40
2018-03-07T20:42:18.901Z,5.40
2018-03-07T20:44:46.332Z,5.50
2018-03-07T20:47:14.204Z,5.60
2018-03-07T20:49:41.631Z,5.60
2018-03-07T20:52:09.475Z,5.80
2018-03-07T20:54:37.692Z,5.80
2018-03-07T20:57:05.124Z,5.70
2018-03-07T20:59:32.947Z,5.90
2018-03-07T21:02:01.171Z,5.90
2018-03-07T21:04:28.610Z,5.80
2018-03-07T21:06:56.820Z,5.90
2018-03-07T21:09:24.255Z,5.90
2018-03-07T21:11:51.694Z,5.80
2018-03-07T21:14:19.523Z,6.00
2018-03-07T21:16:46.971Z,6.10
2018-03-07T21:19:14.402Z,6.10
2018-03-07T21:21:41.834Z,6.10
2018-03-07T21:24:09.283Z,6.10
2018-03-07T21:26:37.475Z,6.10
2018-03-07T21:29:04.899Z,6.10
2018-03-07T21:31:32.347Z,6.10
2018-03-07T21:33:59.787Z,6.10
2018-03-07T21:36:27.975Z,6.10
2018-03-07T21:38:55.419Z,6.00
2018-03-07T21:41:23.621Z,6.00
2018-03-07T21:43:51.055Z,5.90
2018-03-07T21:46:18.504Z,5.90
2018-03-07T21:48:46.351Z,5.80
2018-03-07T21:51:13.782Z,5.80
2018-03-07T21:53:41.995Z,5.80
2018-03-07T21:56:09.455Z,5.80
2018-03-07T21:58:36.896Z,5.80
2018-03-07T22:01:04.386Z,5.80
2018-03-07T22:03:31.769Z,5.80
2018-03-07T22:05:59.989Z,5.80
2018-03-07T22:08:27.831Z,5.80
2018-03-07T22:10:55.664Z,5.80
2018-03-07T22:13:23.175Z,5.80
2018-03-07T22:15:51.374Z,5.80
2018-03-07T22:18:18.806Z,5.80
2018-03-07T22:20:47.015Z,5.80
2018-03-07T22:23:14.451Z,5.80
2018-03-07T22:25:42.662Z,5.80
2018-03-07T22:28:10.095Z,5.70
2018-03-07T22:30:37.560Z,5.70
2018-03-07T22:33:04.995Z,5.80
2018-03-07T22:35:32.441Z,5.80
2018-03-07T22:37:59.889Z,5.70
2018-03-07T22:40:28.082Z,5.70
2018-03-07T22:42:55.518Z,5.70
2018-03-07T22:45:23.740Z,5.70
2018-03-07T22:47:51.174Z,5.70
2018-03-07T22:50:18.632Z,5.70
2018-03-07T22:52:46.082Z,5.70
2018-03-07T22:55:13.528Z,5.70
2018-03-07T22:57:41.730Z,5.70
2018-03-07T23:00:14.723Z,5.60
2018-03-07T23:02:42.171Z,5.60
2018-03-07T23:05:09.607Z,5.60
2018-03-07T23:07:37.819Z,5.50
2018-03-07T23:10:05.262Z,5.60
2018-03-07T23:12:32.705Z,5.50
2018-03-07T23:15:00.166Z,5.60
2018-03-07T23:17:28.379Z,5.70
2018-03-07T23:19:55.796Z,5.60
2018-03-07T23:22:23.256Z,5.50
2018-03-07T23:24:50.695Z,5.50
2018-03-07T23:27:18.282Z,5.50
2018-03-07T23:29:46.481Z,5.60
2018-03-07T23:32:14.675Z,5.70
2018-03-07T23:34:42.503Z,5.70
2018-03-07T23:37:10.729Z,5.70
2018-03-07T23:39:38.943Z,5.70
2018-03-07T23:42:06.388Z,5.80
2018-03-07T23:44:33.832Z,5.80
2018-03-07T23:47:01.271Z,5.80
2018-03-07T23:49:29.488Z,5.80
2018-03-07T23:51:56.948Z,5.90
2018-03-07T23:54:24.379Z,5.90
2018-03-07T23:56:51.822Z,5.90
2018-03-07T23:59:19.267Z,5.90
